Weather History for Hazen, ND

Change the Weather History Date:

Tuesday, March 18, 2014

  Actual Average (KN60) Record (KN60)
Temperature  
Mean Temperature 30 °F -  
Max Temperature 41 °F 32 °F 78 °F (2012)
Min Temperature 19 °F 15 °F 0 °F (2013)
Degree Days  
Heating Degree Days 35    
Moisture  
Dew Point 27 °F    
Average Humidity 83    
Maximum Humidity 100    
Minimum Humidity 49    
Precipitation  
Precipitation 0.00 in - - ()
Sea Level Pressure  
Sea Level Pressure 29.87 in    
Wind  
Wind Speed 9 mph (NNW)    
Max Wind Speed 25 mph    
Max Gust Speed 32 mph    
Visibility 8 miles    
Events      
Averages and records for this station are not official NWS values.
T = Trace of Precipitation, MM = Missing Value Source: NWS Daily Summary

Daily Weather History Graph

Daily Weather History Graph

Search for Another Location

Airport:

Trip Planner

Search our weather history database for the weather conditions in past years. The results will help you decide how hot, cold, wet, or windy it might be!

Date:

Astronomy

Mar. 18, 2014 Rise Set
Actual Time 7:53 AM CDT 7:56 PM CDT
Civil Twilight 7:22 AM CDT 8:26 PM CDT
Nautical Twilight 6:46 AM CDT 9:02 PM CDT
Astronomical Twilight 6:10 AM CDT 9:39 PM CDT
Moon 10:26 PM CDT (3/18) 8:34 AM CDT (3/18)
Length of Visible Light 13h 04m
Length of Day
12h 03m
Waning Gibbous, 96% of the Moon is Illuminated
Mar 18
Waning Gibbous
Mar 23
Last Quarter
Mar 30
New
Apr 7
First Quarter
Apr 15
Full

Hourly Weather History & Observations

Time (CDT) Temp. Windchill Dew Point Humidity Pressure Visibility Wind Dir Wind Speed Gust Speed Precip Events Conditions
12:15 AM 32.0 °F 25.6 °F 30.2 °F 93% 29.68 in 10.0 mi NE 6.9 mph - N/A   Overcast
12:35 AM 32.0 °F 27.5 °F 30.2 °F 93% 29.69 in 8.0 mi NE 4.6 mph - N/A   Overcast
12:55 AM 32.0 °F 26.4 °F 30.2 °F 93% 29.70 in 7.0 mi NE 5.8 mph - N/A   Overcast
1:15 AM 32.0 °F 24.2 °F 30.2 °F 93% 29.71 in 5.0 mi NE 9.2 mph - N/A   Overcast
1:35 AM 32.0 °F 24.2 °F 30.2 °F 93% 29.71 in 4.0 mi NNE 9.2 mph - N/A   Overcast
1:55 AM 32.0 °F 25.6 °F 30.2 °F 93% 29.72 in 2.5 mi NNE 6.9 mph - N/A   Overcast
2:15 AM 32.0 °F 26.4 °F 30.2 °F 93% 29.73 in 4.0 mi NNE 5.8 mph - N/A   Overcast
2:35 AM 32.0 °F 24.8 °F 30.2 °F 93% 29.74 in 2.0 mi North 8.1 mph - N/A   Overcast
2:55 AM 30.2 °F 23.4 °F 30.2 °F 100% 29.75 in 3.0 mi North 6.9 mph - N/A   Overcast
3:15 AM 30.2 °F 25.4 °F 28.4 °F 93% 29.75 in 1.8 mi NE 4.6 mph - N/A   Overcast
3:35 AM 30.2 °F 23.4 °F 28.4 °F 93% 29.77 in 3.0 mi North 6.9 mph - N/A   Overcast
3:55 AM 30.2 °F 24.3 °F 28.4 °F 93% 29.77 in 8.0 mi NNE 5.8 mph - N/A   Overcast
4:15 AM 30.2 °F 25.4 °F 28.4 °F 93% 29.77 in 10.0 mi North 4.6 mph - N/A   Overcast
4:35 AM 30.2 °F 23.4 °F 28.4 °F 93% 29.77 in 10.0 mi NNE 6.9 mph - N/A   Overcast
4:55 AM 30.2 °F 25.4 °F 28.4 °F 93% 29.77 in 10.0 mi North 4.6 mph - N/A   Overcast
5:15 AM 30.2 °F 24.3 °F 28.4 °F 93% 29.77 in 10.0 mi NNE 5.8 mph - N/A   Overcast
5:35 AM 30.2 °F 24.3 °F 28.4 °F 93% 29.78 in 10.0 mi NNW 5.8 mph - N/A   Overcast
5:55 AM 30.2 °F 25.4 °F 28.4 °F 93% 29.78 in 9.0 mi North 4.6 mph - N/A   Overcast
6:15 AM 30.2 °F 23.4 °F 28.4 °F 93% 29.79 in 10.0 mi North 6.9 mph - N/A   Overcast
6:35 AM 30.2 °F 26.7 °F 28.4 °F 93% 29.79 in 10.0 mi NNW 3.5 mph - N/A   Overcast
6:55 AM 30.2 °F 24.3 °F 28.4 °F 93% 29.80 in 9.0 mi NNW 5.8 mph - N/A   Overcast
7:15 AM 30.2 °F 23.4 °F 28.4 °F 93% 29.81 in 9.0 mi North 6.9 mph - N/A   Overcast
7:35 AM 30.2 °F 22.6 °F 28.4 °F 93% 29.82 in 9.0 mi NNW 8.1 mph - N/A   Overcast
7:55 AM 30.2 °F 23.4 °F 28.4 °F 93% 29.82 in 7.0 mi NW 6.9 mph - N/A   Overcast
8:15 AM 30.2 °F 23.4 °F 28.4 °F 93% 29.82 in 5.0 mi NNW 6.9 mph - N/A   Overcast
8:35 AM 32.0 °F 25.6 °F 28.4 °F 87% 29.82 in 5.0 mi NW 6.9 mph - N/A   Overcast
8:55 AM 32.0 °F 23.6 °F 28.4 °F 87% 29.83 in 5.0 mi NW 10.4 mph - N/A   Overcast
9:15 AM 32.0 °F 24.8 °F 28.4 °F 87% 29.83 in 6.0 mi NNW 8.1 mph - N/A   Overcast
9:35 AM 32.0 °F 24.2 °F 30.2 °F 93% 29.84 in 5.0 mi NNW 9.2 mph - N/A   Overcast
9:55 AM 32.0 °F 23.0 °F 30.2 °F 93% 29.85 in 5.0 mi NNW 11.5 mph - N/A   Overcast
10:15 AM 32.0 °F 24.2 °F 30.2 °F 93% 29.86 in 6.0 mi NNW 9.2 mph - N/A   Overcast
10:35 AM 32.0 °F 21.6 °F 30.2 °F 93% 29.87 in 3.0 mi WNW 15.0 mph - N/A   Overcast
10:55 AM 30.2 °F 19.8 °F 28.4 °F 93% 29.88 in 3.0 mi NW 13.8 mph - N/A   Overcast
11:15 AM 30.2 °F 19.8 °F 28.4 °F 93% 29.89 in 5.0 mi NW 13.8 mph - N/A   Overcast
11:35 AM 32.0 °F 23.6 °F 28.4 °F 87% 29.90 in 10.0 mi NNW 10.4 mph - N/A   Overcast
11:55 AM 32.0 °F 24.8 °F 28.4 °F 87% 29.90 in 8.0 mi NW 8.1 mph - N/A   Overcast
12:15 PM 32.0 °F 26.4 °F 28.4 °F 87% 29.90 in 7.0 mi WNW 5.8 mph - N/A   Overcast
12:35 PM 33.8 °F 24.8 °F 30.2 °F 87% 29.91 in 8.0 mi NW 12.7 mph - N/A   Overcast
12:55 PM 33.8 °F 23.9 °F 28.4 °F 81% 29.91 in 10.0 mi NW 15.0 mph 18.4 mph N/A   Overcast
1:15 PM 35.6 °F 27.1 °F 28.4 °F 75% 29.92 in 10.0 mi NW 12.7 mph 19.6 mph N/A   Overcast
1:35 PM 35.6 °F 25.5 °F 28.4 °F 75% 29.92 in 10.0 mi NW 17.3 mph - N/A   Overcast
1:55 PM 35.6 °F 24.5 °F 30.2 °F 81% 29.91 in 10.0 mi NW 20.7 mph 27.6 mph N/A   Overcast
2:15 PM 35.6 °F 25.2 °F 30.2 °F 81% 29.92 in 10.0 mi WNW 18.4 mph - N/A   Overcast
2:35 PM 37.4 °F 27.5 °F 28.4 °F 70% 29.92 in 10.0 mi NNW 18.4 mph 23.0 mph N/A   Overcast
2:55 PM 35.6 °F 24.5 °F 28.4 °F 75% 29.92 in 10.0 mi NW 20.7 mph 24.2 mph N/A   Overcast
3:15 PM 35.6 °F 24.8 °F 28.4 °F 75% 29.92 in 10.0 mi NW 19.6 mph 27.6 mph N/A   Overcast
3:35 PM 37.4 °F 27.5 °F 28.4 °F 70% 29.91 in 10.0 mi WNW 18.4 mph - N/A   Mostly Cloudy
3:55 PM 41.0 °F 30.9 °F 24.8 °F 53% 29.90 in 10.0 mi NW 24.2 mph 29.9 mph N/A   Scattered Clouds
4:15 PM 39.2 °F 29.6 °F 23.0 °F 52% 29.90 in 10.0 mi NW 19.6 mph 26.5 mph N/A   Partly Cloudy
4:35 PM 41.0 °F 30.7 °F 24.8 °F 53% 29.91 in 10.0 mi NW 25.3 mph 28.8 mph N/A   Partly Cloudy
4:55 PM 41.0 °F 32.2 °F 23.0 °F 49% 29.91 in 10.0 mi NW 18.4 mph 31.1 mph N/A   Scattered Clouds
5:15 PM 41.0 °F 31.1 °F 24.8 °F 53% 29.91 in 10.0 mi NW 23.0 mph 32.2 mph N/A   Scattered Clouds
5:35 PM 41.0 °F 31.1 °F 23.0 °F 49% 29.92 in 10.0 mi NW 23.0 mph 32.2 mph N/A   Mostly Cloudy
5:55 PM 39.2 °F 30.5 °F 26.6 °F 61% 29.93 in 10.0 mi NNW 16.1 mph 27.6 mph N/A   Overcast
6:15 PM 37.4 °F 27.2 °F 26.6 °F 65% 29.94 in 10.0 mi NNW 19.6 mph 24.2 mph N/A   Overcast
6:35 PM 37.4 °F 27.8 °F 26.6 °F 65% 29.95 in 10.0 mi NNW 17.3 mph 21.9 mph N/A   Overcast
6:55 PM 37.4 °F 28.5 °F 26.6 °F 65% 29.95 in 10.0 mi North 15.0 mph 23.0 mph N/A   Overcast
7:15 PM 37.4 °F 28.5 °F 24.8 °F 60% 29.95 in 10.0 mi NNW 15.0 mph 21.9 mph N/A   Mostly Cloudy
7:35 PM 35.6 °F 27.1 °F 24.8 °F 65% 29.96 in 10.0 mi North 12.7 mph 16.1 mph N/A   Partly Cloudy
7:55 PM 32.0 °F 24.8 °F 24.8 °F 75% 29.97 in 10.0 mi North 8.1 mph - N/A   Scattered Clouds
8:15 PM 32.0 °F 27.5 °F 24.8 °F 75% 29.97 in 10.0 mi North 4.6 mph - N/A   Mostly Cloudy
8:35 PM 32.0 °F 27.5 °F 24.8 °F 75% 29.98 in 10.0 mi NNW 4.6 mph - N/A   Overcast
8:55 PM 32.0 °F 27.5 °F 24.8 °F 75% 29.99 in 10.0 mi North 4.6 mph - N/A   Mostly Cloudy
9:15 PM 30.2 °F 26.7 °F 24.8 °F 80% 29.99 in 10.0 mi NNW 3.5 mph - N/A   Mostly Cloudy
9:35 PM 28.4 °F 22.2 °F 24.8 °F 86% 30.00 in 10.0 mi NNW 5.8 mph - N/A   Mostly Cloudy
9:55 PM 28.4 °F 24.6 °F 24.8 °F 86% 30.01 in 10.0 mi WNW 3.5 mph - N/A   Partly Cloudy
10:15 PM 26.6 °F - 23.0 °F 86% 30.01 in 10.0 mi Calm Calm - N/A   Clear
10:35 PM 23.0 °F - 19.4 °F 86% 30.01 in 10.0 mi Calm Calm - N/A   Clear
10:55 PM 23.0 °F - 19.4 °F 86% 30.01 in 10.0 mi Calm Calm - N/A   Clear
11:15 PM 21.2 °F - 17.6 °F 86% 30.00 in 10.0 mi Calm Calm - N/A   Clear
11:35 PM 19.4 °F - 17.6 °F 93% 30.00 in 10.0 mi Calm Calm - N/A   Clear
11:55 PM 19.4 °F 14.3 °F 17.6 °F 93% 29.99 in 10.0 mi SSE 3.5 mph - N/A   Clear